Nearby METAR Reports

 

KSJC - San Jose, California, USA
Distance from station: NE 9mi, 14km
Updated: Fri, 29-May-2015 2:53pm PDT
Mostly cloudy
Mostly cloudy
 Wind from WNW
Wind: WNW 13 mph , 20 km/h
Temperature: 70°F , 21°C
Dew Point: 54°F , 12°C
Humidity: 57%
Barometer: 29.96 inHg , 1014.6 hPa
Clouds: Mostly cloudy
Visibility: 10 miles , 16 km
Cloud details: Few Clouds 1400 ft
Partly cloudy 12000 ft
Mostly cloudy 18000 ft
2015/05/29 21:53 KSJC 292153Z 30011KT 10SM FEW014 SCT120 BKN180 21/12 A2996 RMK AO2 SLP143 T02060122
KNUQ - Moffett Nas/Mtn, California, USA
Distance from station: N 9mi, 14km
Updated: Fri, 29-May-2015 2:56pm PDT
Clear
Clear
 Wind from N
Wind: N 15 mph , 24 km/h
Temperature: 64°F , 18°C
Dew Point: 54°F , 12°C
Humidity: 68%
Barometer: 29.97 inHg , 1014.9 hPa
Clouds: Clear
Visibility: 10 miles , 16 km
2015/05/29 21:56 KNUQ 292156Z 35013KT 10SM CLR 18/12 A2997 RMK AO2 SLP151 T01830122
 
KPAO - Palo Alto, California, USA
Distance from station: NNW 14mi, 23km
Updated: Fri, 29-May-2015 1:47pm PDT
Mostly cloudy
Mostly cloudy
 Wind from N
Wind: N 17 mph , 28 km/h
Temperature: 66°F , 19°C
Dew Point: 55°F , 13°C
Humidity: 68%
Barometer: 29.98 inHg , 1015.2 hPa
Clouds: Mostly cloudy
Visibility: 30 miles , 48 km
Cloud details: Mostly cloudy 15000 ft
2015/05/29 20:47 KPAO 292047Z 36015KT 30SM BKN150 19/13 A2998
KRHV - San Jose/Reid, California, USA
Distance from station: ENE 12mi, 19km
Updated: Fri, 29-May-2015 2:52pm PDT
Mostly cloudy
Mostly cloudy
 Wind from WNW
Wind: WNW 12 mph , 19 km/h
Temperature: 72°F , 22°C
Dew Point: 54°F , 12°C
Humidity: 53%
Barometer: 29.95 inHg , 1014.2 hPa
Clouds: Mostly cloudy
Visibility: 10 miles , 16 km
Cloud details: Mostly cloudy 14000 ft
2015/05/29 21:52 KRHV 292152Z 29010KT 10SM BKN140 22/12 A2995
 
KOAK - Oakland, California, USA
Distance from station: NNW 31mi, 50km
Updated: Fri, 29-May-2015 2:53pm PDT
Mostly cloudy
Mostly cloudy
 Wind from W
Wind: W 12 mph , 19 km/h
Temperature: 61°F , 16°C
Dew Point: 50°F , 10°C
Humidity: 68%
Barometer: 29.98 inHg , 1015.2 hPa
Clouds: Mostly cloudy
Visibility: 10 miles , 16 km
Cloud details: Few Clouds 1200 ft
Mostly cloudy 18000 ft
2015/05/29 21:53 KOAK 292153Z 27010KT 10SM FEW012 BKN180 16/10 A2998 RMK AO2 SLP151 T01610100
KSQL - San Carlos Airpo, California, USA
Distance from station: NW 21mi, 34km
Updated: Fri, 29-May-2015 2:47pm PDT
Mostly cloudy
Mostly cloudy
 Wind from W
Wind: W 12 mph , 19 km/h
Temperature: 66°F , 19°C
Dew Point: 52°F , 11°C
Humidity: 60%
Barometer: 29.97 inHg , 1014.9 hPa
Clouds: Mostly cloudy
Visibility: 10 miles , 16 km
Cloud details: Few Clouds 1000 ft
Partly cloudy 18000 ft
Mostly cloudy 20000 ft
2015/05/29 21:47 KSQL 292147Z 26010KT 10SM FEW010 SCT180 BKN200 19/11 A2997
 
KSFO - San Francisco, California, USA
Distance from station: NW 30mi, 49km
Updated: Fri, 29-May-2015 2:56pm PDT
Mostly cloudy
Mostly cloudy
 Wind from W
Wind: W 17 mph , 28 km/h, Gust: 26 mph , 43 km/h
Temperature: 61°F , 16°C
Dew Point: 50°F , 10°C
Humidity: 68%
Barometer: 29.97 inHg , 1014.9 hPa
Clouds: Mostly cloudy
Visibility: 10 miles , 16 km
Cloud details: Few Clouds 500 ft
Partly cloudy 1100 ft
Mostly cloudy 20000 ft
2015/05/29 21:56 KSFO 292156Z 27015G23KT 10SM FEW005 SCT011 BKN200 16/10 A2997 RMK AO2 SLP149 T01610100
KE16 - San Martin, California, USA
Distance from station: ESE 27mi, 43km
Updated: Fri, 29-May-2015 2:55pm PDT
Clear
Clear
 Wind from NW
Wind: NW 12 mph , 19 km/h, Gust: 17 mph , 28 km/h
Temperature: 81°F , 27°C
Dew Point: 48°F , 9°C
Humidity: 32%
Barometer: 29.93 inHg , 1013.5 hPa
Clouds: Clear
Visibility: 10 miles , 16 km
2015/05/29 21:55 KE16 292155Z AUTO 31010G15KT 10SM CLR 27/09 A2993 RMK AO2
 
KWVI - Watsonville, California, USA
Distance from station: SSE 27mi, 44km
Updated: Fri, 29-May-2015 2:53pm PDT
Clear
Clear
 Wind from varies
Wind: varies 5 mph , 7 km/h
Temperature: 66°F , 19°C
Dew Point: 54°F , 12°C
Humidity: 64%
Barometer: 29.96 inHg , 1014.6 hPa
Clouds: Clear
Visibility: 10 miles , 16 km
2015/05/29 21:53 KWVI 292153Z AUTO VRB04KT 10SM CLR 19/12 A2996 RMK AO2 SLP146 T01890122
KHAF - Half Moon Bay, California, USA
Distance from station: WNW 31mi, 50km
Updated: Fri, 29-May-2015 1:55pm PDT

 Wind from NNW
Wind: NNW 12 mph , 19 km/h
Barometer: 30.01 inHg , 1016.3 hPa
2015/05/29 20:55 KHAF 292055Z AUTO 33010KT A3001 RMK AO2
 
KHWD - Hayward, California, USA
Distance from station: N 28mi, 44km
Updated: Fri, 29-May-2015 2:54pm PDT
Clear
Clear
 Wind from WNW
Wind: WNW 13 mph , 20 km/h
Temperature: 63°F , 17°C
Dew Point: 52°F , 11°C
Humidity: 68%
Barometer: 29.97 inHg , 1014.9 hPa
Clouds: Clear
Visibility: 10 miles , 16 km
2015/05/29 21:54 KHWD 292154Z 30011KT 10SM CLR 17/11 A2997 RMK AO2 SLP158 T01670111
KLVK - Livermore, California, USA
Distance from station: NNE 31mi, 51km
Updated: Fri, 29-May-2015 2:53pm PDT
Clear
Clear
 Wind from WNW
Wind: WNW 13 mph , 20 km/h
Temperature: 77°F , 25°C
Dew Point: 52°F , 11°C
Humidity: 42%
Barometer: 29.92 inHg , 1013.2 hPa
Clouds: Clear
Visibility: 10 miles , 16 km
2015/05/29 21:53 KLVK 292153Z 30011KT 10SM CLR 25/11 A2992 RMK AO2 SLP130 T02500106